Pireps
You are here: Olympic Virtual Pireps

Flight OLY503

  • Submitted By: Stavros Sarikas
  • Departure Airport: Heraklion International Nikos Kazantzakis Airport (LGIR)
  • Arrival Airport: Eleftherios Venizelos International Airport (LGAV)
  • Aircraft: A320-200 (SX-OAR)
  • Flight Time: 00.48
  • Date Submitted: 20/06/2018
  • Route: EPALO UM749 MIL UL617 SOREV
  • Status: Accepted
Flight Details
Gross Revenue:
(119 load / € 55.00 per unit
€ 6, 545.00
Fuel Cost:
(1650 fuel used @ 0.19 / unit)
€ 313.50

Additional Log Information:

View Log

Aircraft Used in flight is Airbus A320 British Airways G-EUUU
17:09 Boarding
17:09 Navigation Lights ON at 130 Feet
17:09 Beacon Lights ON at 130 Feet
17:09 Brakes are On
17:13 Engine 2 Started
17:14 Engine 1 Started
17:16 Brakes are Released
17:16 Pushing back
17:16 Flaps 3 Selected at 130ft and 0kts
17:17 Taxi Lights ON at 130 Feet
17:18 Landing Lights ON at 130 AGL
17:18 Strobe Lights ON at 130 Feet
17:18 You Took off @ 126 Knots and Flaps at Position 3 With a heading of 306 Degrees
Departure Weather LGIR 201350Z 33009KT 9999 -TSRA FEW018CB BKN025 25/22 Q1014 NOSIG
Departure Coordinates 35.3434913692081/ 25.1742110234992
Takeoff Weight=59716KG Fuel Weight=4871KG
17:19 Landing Gear Up @ 136 Knots and 200 Feet
17:19 Taxi Lights OFF at 210 Feet
17:19 Flaps 2 Selected at 1810ft and 145kts
17:20 Flaps 0 Selected at 2070ft and 184kts
17:22 Above FL100 you need to switch of the landing lights
17:22 Landing Lights OFF at 10450 AGL
17:27 TOC Reached
17:43 Below 10000 feet you are not allowed to go over 250 knots
17:47 You exceeded maximum bank angle
17:49 Flaps 1 Selected at 2760ft and 202kts
17:49 Flaps 3 Selected at 2620ft and 192kts
17:49 Flaps 4 Selected at 2430ft and 165kts
17:50 Flaps 5 Selected at 2350ft and 159kts
17:50 Landing Gear Down @ 156 Knots and 2320 Feet
17:52 You Landed @ 130 Knots with -200 Vertical Speed With a heading of 37 and with 2.7008 G Force
Arrival Weather: LGAV 201420Z 03017KT 9999 FEW030 29/09 Q1015 NOSIG
Arrival Coordinates 37.9296393508893/ 23.9491280113182
Landing Weight=58314KG Fuel Weight=3470KG
17:53 Taxiing to gate
17:53 Paused
17:53 Taxi Lights ON at 320 Feet
17:53 Strobe Lights OFF at 320 Feet
17:53 Flaps 0 Selected at 320ft and 6kts
17:56 Brakes are On
17:56 Unpaused
Pirep logged with OA Virtual Tracking 1.0.2.6

Route Map